sensor_id;sensor_type;location;lat;lon;timestamp;pressure;altitude;pressure_sealevel;temperature;humidity
69257;BME280;56376;53.356;-1.748;2023-08-21T00:02:15;100060.88;;;14.97;100.00
69257;BME280;56376;53.356;-1.748;2023-08-21T00:04:40;100072.38;;;14.94;100.00
69257;BME280;56376;53.356;-1.748;2023-08-21T00:07:06;100054.13;;;14.91;100.00
69257;BME280;56376;53.356;-1.748;2023-08-21T00:09:31;100058.53;;;14.90;100.00
69257;BME280;56376;53.356;-1.748;2023-08-21T00:11:57;100057.69;;;14.90;100.00
69257;BME280;56376;53.356;-1.748;2023-08-21T00:14:22;100067.38;;;14.89;100.00
69257;BME280;56376;53.356;-1.748;2023-08-21T00:16:47;100057.59;;;14.91;100.00
69257;BME280;56376;53.356;-1.748;2023-08-21T00:19:13;100068.22;;;14.90;100.00
69257;BME280;56376;53.356;-1.748;2023-08-21T00:21:38;100066.28;;;14.93;100.00
69257;BME280;56376;53.356;-1.748;2023-08-21T00:24:04;100053.22;;;14.92;100.00
69257;BME280;56376;53.356;-1.748;2023-08-21T00:26:29;100054.84;;;14.95;100.00
69257;BME280;56376;53.356;-1.748;2023-08-21T00:28:54;100056.34;;;15.00;100.00
69257;BME280;56376;53.356;-1.748;2023-08-21T00:31:20;100056.41;;;14.99;100.00
69257;BME280;56376;53.356;-1.748;2023-08-21T00:33:45;100061.66;;;14.99;100.00
69257;BME280;56376;53.356;-1.748;2023-08-21T00:36:11;100051.22;;;14.97;100.00
69257;BME280;56376;53.356;-1.748;2023-08-21T00:38:36;100060.81;;;14.98;100.00
69257;BME280;56376;53.356;-1.748;2023-08-21T00:41:01;100047.81;;;14.95;100.00
69257;BME280;56376;53.356;-1.748;2023-08-21T00:43:27;100058.38;;;14.93;100.00
69257;BME280;56376;53.356;-1.748;2023-08-21T00:45:52;100061.97;;;14.92;100.00
69257;BME280;56376;53.356;-1.748;2023-08-21T00:48:18;100059.38;;;14.91;100.00
69257;BME280;56376;53.356;-1.748;2023-08-21T00:50:44;100076.88;;;14.92;100.00
69257;BME280;56376;53.356;-1.748;2023-08-21T00:53:10;100068.22;;;14.90;100.00
69257;BME280;56376;53.356;-1.748;2023-08-21T00:55:36;100062.22;;;14.86;100.00
69257;BME280;56376;53.356;-1.748;2023-08-21T00:58:02;100066.72;;;14.84;100.00
69257;BME280;56376;53.356;-1.748;2023-08-21T01:00:30;100065.13;;;14.80;100.00
69257;BME280;56376;53.356;-1.748;2023-08-21T01:02:55;100061.72;;;14.78;100.00
69257;BME280;56376;53.356;-1.748;2023-08-21T01:05:22;100070.59;;;14.76;100.00
69257;BME280;56376;53.356;-1.748;2023-08-21T01:07:53;100065.47;;;14.73;100.00
69257;BME280;56376;53.356;-1.748;2023-08-21T01:10:52;100064.09;;;14.64;100.00
69257;BME280;56376;53.356;-1.748;2023-08-21T01:15:54;100070.63;;;14.55;100.00
69257;BME280;56376;53.356;-1.748;2023-08-21T01:18:22;100080.41;;;14.52;100.00
69257;BME280;56376;53.356;-1.748;2023-08-21T01:20:48;100085.88;;;14.47;100.00
69257;BME280;56376;53.356;-1.748;2023-08-21T01:23:37;100084.28;;;14.43;100.00
69257;BME280;56376;53.356;-1.748;2023-08-21T01:26:03;100087.03;;;14.40;100.00
69257;BME280;56376;53.356;-1.748;2023-08-21T01:28:30;100095.97;;;14.36;100.00
69257;BME280;56376;53.356;-1.748;2023-08-21T01:31:07;100087.19;;;14.37;100.00
69257;BME280;56376;53.356;-1.748;2023-08-21T01:33:35;100087.25;;;14.35;100.00
69257;BME280;56376;53.356;-1.748;2023-08-21T01:36:04;100079.53;;;14.31;100.00
69257;BME280;56376;53.356;-1.748;2023-08-21T01:38:32;100085.72;;;14.29;100.00
69257;BME280;56376;53.356;-1.748;2023-08-21T01:40:58;100087.50;;;14.29;100.00
69257;BME280;56376;53.356;-1.748;2023-08-21T01:43:23;100090.13;;;14.29;100.00
69257;BME280;56376;53.356;-1.748;2023-08-21T01:45:49;100091.03;;;14.28;100.00
69257;BME280;56376;53.356;-1.748;2023-08-21T01:48:15;100089.34;;;14.27;100.00
69257;BME280;56376;53.356;-1.748;2023-08-21T01:50:40;100086.78;;;14.25;100.00
69257;BME280;56376;53.356;-1.748;2023-08-21T01:53:05;100085.06;;;14.24;100.00
69257;BME280;56376;53.356;-1.748;2023-08-21T01:55:31;100094.75;;;14.24;100.00
69257;BME280;56376;53.356;-1.748;2023-08-21T01:57:56;100086.06;;;14.22;100.00
69257;BME280;56376;53.356;-1.748;2023-08-21T02:00:21;100080.84;;;14.20;100.00
69257;BME280;56376;53.356;-1.748;2023-08-21T02:02:47;100072.19;;;14.18;100.00
69257;BME280;56376;53.356;-1.748;2023-08-21T02:05:12;100072.41;;;14.14;100.00
69257;BME280;56376;53.356;-1.748;2023-08-21T02:07:37;100083.09;;;14.09;100.00
69257;BME280;56376;53.356;-1.748;2023-08-21T02:10:03;100085.16;;;14.01;100.00
69257;BME280;56376;53.356;-1.748;2023-08-21T02:12:29;100081.81;;;13.97;100.00
69257;BME280;56376;53.356;-1.748;2023-08-21T02:14:54;100078.50;;;13.94;100.00
69257;BME280;56376;53.356;-1.748;2023-08-21T02:17:19;100080.31;;;13.92;100.00
69257;BME280;56376;53.356;-1.748;2023-08-21T02:19:45;100078.81;;;13.86;100.00
69257;BME280;56376;53.356;-1.748;2023-08-21T02:22:10;100078.06;;;13.82;100.00
69257;BME280;56376;53.356;-1.748;2023-08-21T02:24:36;100084.28;;;13.80;100.00
69257;BME280;56376;53.356;-1.748;2023-08-21T02:27:01;100081.84;;;13.75;100.00
69257;BME280;56376;53.356;-1.748;2023-08-21T02:29:28;100086.19;;;13.76;100.00
69257;BME280;56376;53.356;-1.748;2023-08-21T02:31:53;100081.00;;;13.75;100.00
69257;BME280;56376;53.356;-1.748;2023-08-21T02:34:19;100086.38;;;13.72;100.00
69257;BME280;56376;53.356;-1.748;2023-08-21T02:36:44;100088.22;;;13.70;100.00
69257;BME280;56376;53.356;-1.748;2023-08-21T02:39:09;100087.50;;;13.66;100.00
69257;BME280;56376;53.356;-1.748;2023-08-21T02:41:35;100088.47;;;13.63;100.00
69257;BME280;56376;53.356;-1.748;2023-08-21T02:44:00;100101.63;;;13.62;100.00
69257;BME280;56376;53.356;-1.748;2023-08-21T02:46:25;100090.41;;;13.58;100.00
69257;BME280;56376;53.356;-1.748;2023-08-21T02:48:51;100100.03;;;13.58;100.00
69257;BME280;56376;53.356;-1.748;2023-08-21T02:51:16;100086.31;;;13.51;100.00
69257;BME280;56376;53.356;-1.748;2023-08-21T02:53:41;100099.44;;;13.51;100.00
69257;BME280;56376;53.356;-1.748;2023-08-21T02:56:07;100089.97;;;13.47;100.00
69257;BME280;56376;53.356;-1.748;2023-08-21T02:58:32;100092.78;;;13.42;100.00
69257;BME280;56376;53.356;-1.748;2023-08-21T03:00:58;100097.13;;;13.44;100.00
69257;BME280;56376;53.356;-1.748;2023-08-21T03:03:23;100097.34;;;13.37;100.00
69257;BME280;56376;53.356;-1.748;2023-08-21T03:05:48;100092.22;;;13.34;100.00
69257;BME280;56376;53.356;-1.748;2023-08-21T03:08:14;100099.38;;;13.31;100.00
69257;BME280;56376;53.356;-1.748;2023-08-21T03:10:39;100108.09;;;13.31;100.00
69257;BME280;56376;53.356;-1.748;2023-08-21T03:13:05;100096.00;;;13.27;100.00
69257;BME280;56376;53.356;-1.748;2023-08-21T03:15:30;100098.63;;;13.27;100.00
69257;BME280;56376;53.356;-1.748;2023-08-21T03:17:56;100089.06;;;13.25;100.00
69257;BME280;56376;53.356;-1.748;2023-08-21T03:20:21;100091.69;;;13.25;100.00
69257;BME280;56376;53.356;-1.748;2023-08-21T03:22:46;100080.50;;;13.19;100.00
69257;BME280;56376;53.356;-1.748;2023-08-21T03:25:12;100078.81;;;13.18;100.00
69257;BME280;56376;53.356;-1.748;2023-08-21T03:27:37;100078.88;;;13.17;100.00
69257;BME280;56376;53.356;-1.748;2023-08-21T03:30:06;100074.47;;;13.17;100.00
69257;BME280;56376;53.356;-1.748;2023-08-21T03:32:32;100075.44;;;13.15;100.00
69257;BME280;56376;53.356;-1.748;2023-08-21T03:34:58;100063.38;;;13.11;100.00
69257;BME280;56376;53.356;-1.748;2023-08-21T03:37:23;100067.81;;;13.09;100.00
69257;BME280;56376;53.356;-1.748;2023-08-21T03:39:49;100066.16;;;13.06;100.00
69257;BME280;56376;53.356;-1.748;2023-08-21T03:42:14;100070.66;;;13.03;100.00
69257;BME280;56376;53.356;-1.748;2023-08-21T03:44:39;100069.09;;;12.98;100.00
69257;BME280;56376;53.356;-1.748;2023-08-21T03:47:05;100077.84;;;12.97;100.00
69257;BME280;56376;53.356;-1.748;2023-08-21T03:49:30;100070.91;;;12.96;100.00
69257;BME280;56376;53.356;-1.748;2023-08-21T03:51:56;100072.72;;;12.94;100.00
69257;BME280;56376;53.356;-1.748;2023-08-21T03:54:21;100078.13;;;12.90;100.00
69257;BME280;56376;53.356;-1.748;2023-08-21T03:56:46;100065.91;;;12.90;100.00
69257;BME280;56376;53.356;-1.748;2023-08-21T03:59:12;100087.66;;;12.92;100.00
69257;BME280;56376;53.356;-1.748;2023-08-21T04:01:37;100079.91;;;12.89;100.00
69257;BME280;56376;53.356;-1.748;2023-08-21T04:04:03;100086.00;;;12.90;100.00
69257;BME280;56376;53.356;-1.748;2023-08-21T04:06:28;100085.91;;;12.93;100.00
69257;BME280;56376;53.356;-1.748;2023-08-21T04:08:54;100076.25;;;12.93;100.00
69257;BME280;56376;53.356;-1.748;2023-08-21T04:11:20;100077.22;;;12.91;100.00
69257;BME280;56376;53.356;-1.748;2023-08-21T04:13:45;100086.06;;;12.88;100.00
69257;BME280;56376;53.356;-1.748;2023-08-21T04:16:10;100081.72;;;12.87;100.00
69257;BME280;56376;53.356;-1.748;2023-08-21T04:18:37;100075.59;;;12.88;100.00
69257;BME280;56376;53.356;-1.748;2023-08-21T04:21:04;100079.91;;;12.89;100.00
69257;BME280;56376;53.356;-1.748;2023-08-21T04:23:29;100076.38;;;12.90;100.00
69257;BME280;56376;53.356;-1.748;2023-08-21T04:26:03;100066.78;;;12.89;100.00
69257;BME280;56376;53.356;-1.748;2023-08-21T04:28:31;100076.38;;;12.90;100.00
69257;BME280;56376;53.356;-1.748;2023-08-21T04:30:57;100072.00;;;12.91;100.00
69257;BME280;56376;53.356;-1.748;2023-08-21T04:33:25;100087.59;;;12.94;100.00
69257;BME280;56376;53.356;-1.748;2023-08-21T04:35:50;100079.84;;;12.91;100.00
69257;BME280;56376;53.356;-1.748;2023-08-21T04:38:16;100079.78;;;12.92;100.00
69257;BME280;56376;53.356;-1.748;2023-08-21T04:40:41;100077.28;;;12.89;100.00
69257;BME280;56376;53.356;-1.748;2023-08-21T04:43:07;100072.19;;;12.85;100.00
69257;BME280;56376;53.356;-1.748;2023-08-21T04:45:32;100080.16;;;12.83;100.00
69257;BME280;56376;53.356;-1.748;2023-08-21T04:47:58;100093.38;;;12.80;100.00
69257;BME280;56376;53.356;-1.748;2023-08-21T04:50:23;100094.38;;;12.76;100.00
69257;BME280;56376;53.356;-1.748;2023-08-21T04:52:49;100088.34;;;12.74;100.00
69257;BME280;56376;53.356;-1.748;2023-08-21T04:55:15;100090.22;;;12.70;100.00
69257;BME280;56376;53.356;-1.748;2023-08-21T04:57:41;100095.50;;;12.69;100.00
69257;BME280;56376;53.356;-1.748;2023-08-21T05:00:07;100093.91;;;12.65;100.00
69257;BME280;56376;53.356;-1.748;2023-08-21T05:02:33;100094.84;;;12.62;100.00
69257;BME280;56376;53.356;-1.748;2023-08-21T05:04:59;100094.09;;;12.60;100.00
69257;BME280;56376;53.356;-1.748;2023-08-21T05:07:24;100100.28;;;12.58;100.00
69257;BME280;56376;53.356;-1.748;2023-08-21T05:09:51;100097.75;;;12.54;100.00
69257;BME280;56376;53.356;-1.748;2023-08-21T05:12:17;100097.88;;;12.51;100.00
69257;BME280;56376;53.356;-1.748;2023-08-21T05:14:42;100095.38;;;12.48;100.00
69257;BME280;56376;53.356;-1.748;2023-08-21T05:17:08;100099.91;;;12.43;100.00
69257;BME280;56376;53.356;-1.748;2023-08-21T05:19:33;100101.69;;;12.43;100.00
69257;BME280;56376;53.356;-1.748;2023-08-21T05:21:58;100100.72;;;12.45;100.00
69257;BME280;56376;53.356;-1.748;2023-08-21T05:24:24;100101.56;;;12.46;100.00
69257;BME280;56376;53.356;-1.748;2023-08-21T05:26:49;100102.53;;;12.43;100.00
69257;BME280;56376;53.356;-1.748;2023-08-21T05:29:15;100097.28;;;12.43;100.00
69257;BME280;56376;53.356;-1.748;2023-08-21T05:31:40;100098.19;;;12.42;100.00
69257;BME280;56376;53.356;-1.748;2023-08-21T05:34:06;100104.38;;;12.40;100.00
69257;BME280;56376;53.356;-1.748;2023-08-21T05:36:31;100105.31;;;12.39;100.00
69257;BME280;56376;53.356;-1.748;2023-08-21T05:38:57;100106.25;;;12.36;100.00
69257;BME280;56376;53.356;-1.748;2023-08-21T05:41:22;100099.31;;;12.35;100.00
69257;BME280;56376;53.356;-1.748;2023-08-21T05:43:47;100101.13;;;12.33;100.00
69257;BME280;56376;53.356;-1.748;2023-08-21T05:46:14;100099.41;;;12.32;100.00
69257;BME280;56376;53.356;-1.748;2023-08-21T05:48:39;100094.28;;;12.29;100.00
69257;BME280;56376;53.356;-1.748;2023-08-21T05:51:05;100098.53;;;12.33;100.00
69257;BME280;56376;53.356;-1.748;2023-08-21T05:53:30;100100.91;;;12.39;100.00
69257;BME280;56376;53.356;-1.748;2023-08-21T05:55:55;100100.81;;;12.42;100.00
69257;BME280;56376;53.356;-1.748;2023-08-21T05:58:21;100100.72;;;12.45;100.00
69257;BME280;56376;53.356;-1.748;2023-08-21T06:00:48;100105.84;;;12.48;100.00
69257;BME280;56376;53.356;-1.748;2023-08-21T06:03:13;100101.25;;;12.55;100.00
69257;BME280;56376;53.356;-1.748;2023-08-21T06:05:39;100100.06;;;12.64;100.00
69257;BME280;56376;53.356;-1.748;2023-08-21T06:08:04;100109.25;;;12.75;100.00
69257;BME280;56376;53.356;-1.748;2023-08-21T06:10:31;100115.88;;;12.86;100.00
69257;BME280;56376;53.356;-1.748;2023-08-21T06:12:57;100118.94;;;12.97;100.00
69257;BME280;56376;53.356;-1.748;2023-08-21T06:15:22;100109.81;;;13.07;100.00
69257;BME280;56376;53.356;-1.748;2023-08-21T06:17:47;100114.63;;;13.19;100.00
69257;BME280;56376;53.356;-1.748;2023-08-21T06:20:13;100109.88;;;13.31;100.00
69257;BME280;56376;53.356;-1.748;2023-08-21T06:22:39;100103.34;;;13.41;100.00
69257;BME280;56376;53.356;-1.748;2023-08-21T06:25:04;100108.28;;;13.49;100.00
69257;BME280;56376;53.356;-1.748;2023-08-21T06:27:30;100103.59;;;13.57;100.00
69257;BME280;56376;53.356;-1.748;2023-08-21T06:29:55;100106.75;;;13.65;100.00
69257;BME280;56376;53.356;-1.748;2023-08-21T06:32:21;100103.97;;;13.70;100.00
69257;BME280;56376;53.356;-1.748;2023-08-21T06:34:46;100093.22;;;13.76;100.00
69257;BME280;56376;53.356;-1.748;2023-08-21T06:37:12;100094.66;;;13.83;100.00
69257;BME280;56376;53.356;-1.748;2023-08-21T06:39:38;100099.56;;;13.92;100.00
69257;BME280;56376;53.356;-1.748;2023-08-21T06:42:03;100101.84;;;14.00;100.00
69257;BME280;56376;53.356;-1.748;2023-08-21T06:44:29;100101.59;;;14.06;100.00
69257;BME280;56376;53.356;-1.748;2023-08-21T06:46:54;100104.91;;;14.11;100.00
69257;BME280;56376;53.356;-1.748;2023-08-21T06:49:20;100107.41;;;14.14;100.00
69257;BME280;56376;53.356;-1.748;2023-08-21T06:51:45;100110.69;;;14.19;100.00
69257;BME280;56376;53.356;-1.748;2023-08-21T06:54:10;100120.94;;;14.25;100.00
69257;BME280;56376;53.356;-1.748;2023-08-21T06:56:36;100111.06;;;14.31;100.00
69257;BME280;56376;53.356;-1.748;2023-08-21T06:59:01;100109.91;;;14.38;100.00
69257;BME280;56376;53.356;-1.748;2023-08-21T07:01:27;100119.38;;;14.42;100.00
69257;BME280;56376;53.356;-1.748;2023-08-21T07:03:53;100120.88;;;14.47;100.00
69257;BME280;56376;53.356;-1.748;2023-08-21T07:06:18;100116.25;;;14.54;100.00
69257;BME280;56376;53.356;-1.748;2023-08-21T07:08:44;100122.88;;;14.63;100.00
69257;BME280;56376;53.356;-1.748;2023-08-21T07:11:09;100112.97;;;14.69;100.00
69257;BME280;56376;53.356;-1.748;2023-08-21T07:13:36;100117.69;;;14.82;100.00
69257;BME280;56376;53.356;-1.748;2023-08-21T07:16:01;100122.38;;;14.94;100.00
69257;BME280;56376;53.356;-1.748;2023-08-21T07:18:33;100127.81;;;15.10;100.00
69257;BME280;56376;53.356;-1.748;2023-08-21T07:20:59;100126.53;;;15.19;100.00
69257;BME280;56376;53.356;-1.748;2023-08-21T07:23:25;100125.03;;;15.32;100.00
69257;BME280;56376;53.356;-1.748;2023-08-21T07:25:51;100125.41;;;15.43;100.00
69257;BME280;56376;53.356;-1.748;2023-08-21T07:28:16;100129.34;;;15.52;100.00
69257;BME280;56376;53.356;-1.748;2023-08-21T07:30:42;100123.72;;;15.59;100.00
69257;BME280;56376;53.356;-1.748;2023-08-21T07:33:07;100128.44;;;15.72;100.00
69257;BME280;56376;53.356;-1.748;2023-08-21T07:35:32;100122.53;;;15.86;100.00
69257;BME280;56376;53.356;-1.748;2023-08-21T07:37:58;100129.59;;;16.02;100.00
69257;BME280;56376;53.356;-1.748;2023-08-21T07:40:24;100117.44;;;16.17;100.00
69257;BME280;56376;53.356;-1.748;2023-08-21T07:42:49;100128.81;;;16.35;100.00
69257;BME280;56376;53.356;-1.748;2023-08-21T07:45:14;100123.66;;;16.51;100.00
69257;BME280;56376;53.356;-1.748;2023-08-21T07:47:40;100127.97;;;16.70;100.00
69257;BME280;56376;53.356;-1.748;2023-08-21T07:50:06;100128.03;;;16.85;100.00
69257;BME280;56376;53.356;-1.748;2023-08-21T07:52:32;100118.69;;;16.96;100.00
69257;BME280;56376;53.356;-1.748;2023-08-21T07:54:58;100127.75;;;17.07;100.00
69257;BME280;56376;53.356;-1.748;2023-08-21T07:57:26;100113.47;;;17.12;100.00
69257;BME280;56376;53.356;-1.748;2023-08-21T07:59:51;100126.50;;;17.15;100.00
69257;BME280;56376;53.356;-1.748;2023-08-21T08:02:17;100123.69;;;17.18;100.00
69257;BME280;56376;53.356;-1.748;2023-08-21T08:04:42;100114.56;;;17.23;100.00
69257;BME280;56376;53.356;-1.748;2023-08-21T08:07:08;100113.13;;;17.34;100.00
69257;BME280;56376;53.356;-1.748;2023-08-21T08:09:33;100114.78;;;17.36;100.00
69257;BME280;56376;53.356;-1.748;2023-08-21T08:11:59;100115.03;;;17.32;100.00
69257;BME280;56376;53.356;-1.748;2023-08-21T08:14:24;100118.50;;;17.32;100.00
69257;BME280;56376;53.356;-1.748;2023-08-21T08:16:50;100112.81;;;17.40;100.00
69257;BME280;56376;53.356;-1.748;2023-08-21T08:19:15;100113.03;;;17.51;100.00
69257;BME280;56376;53.356;-1.748;2023-08-21T08:21:41;100114.41;;;17.58;100.00
69257;BME280;56376;53.356;-1.748;2023-08-21T08:24:06;100118.34;;;17.67;100.00
69257;BME280;56376;53.356;-1.748;2023-08-21T08:26:31;100117.13;;;17.72;100.00
69257;BME280;56376;53.356;-1.748;2023-08-21T08:28:57;100112.44;;;17.78;100.00
69257;BME280;56376;53.356;-1.748;2023-08-21T08:31:22;100123.81;;;17.80;100.00
69257;BME280;56376;53.356;-1.748;2023-08-21T08:33:49;100103.53;;;17.80;100.00
69257;BME280;56376;53.356;-1.748;2023-08-21T08:36:15;100111.28;;;17.83;100.00
69257;BME280;56376;53.356;-1.748;2023-08-21T08:38:40;100110.16;;;17.87;100.00
69257;BME280;56376;53.356;-1.748;2023-08-21T08:41:11;100113.56;;;17.89;100.00
69257;BME280;56376;53.356;-1.748;2023-08-21T08:43:39;100108.28;;;17.89;100.00
69257;BME280;56376;53.356;-1.748;2023-08-21T08:46:06;100110.94;;;17.89;100.00
69257;BME280;56376;53.356;-1.748;2023-08-21T08:48:33;100109.13;;;17.90;100.00
69257;BME280;56376;53.356;-1.748;2023-08-21T08:50:59;100107.16;;;17.93;100.00
69257;BME280;56376;53.356;-1.748;2023-08-21T08:53:25;100107.59;;;18.02;100.00
69257;BME280;56376;53.356;-1.748;2023-08-21T08:55:52;100104.84;;;18.03;100.00
69257;BME280;56376;53.356;-1.748;2023-08-21T08:58:17;100105.53;;;18.07;100.00
69257;BME280;56376;53.356;-1.748;2023-08-21T09:00:43;100110.53;;;18.11;100.00
69257;BME280;56376;53.356;-1.748;2023-08-21T09:03:08;100104.38;;;18.11;100.00
69257;BME280;56376;53.356;-1.748;2023-08-21T09:05:36;100108.75;;;18.12;100.00
69257;BME280;56376;53.356;-1.748;2023-08-21T09:08:09;100106.19;;;18.10;100.00
69257;BME280;56376;53.356;-1.748;2023-08-21T09:10:36;100113.16;;;18.11;100.00
69257;BME280;56376;53.356;-1.748;2023-08-21T09:13:12;100122.91;;;18.11;100.00
69257;BME280;56376;53.356;-1.748;2023-08-21T09:15:37;100119.31;;;18.12;100.00
69257;BME280;56376;53.356;-1.748;2023-08-21T09:18:03;100112.50;;;18.08;100.00
69257;BME280;56376;53.356;-1.748;2023-08-21T09:20:34;100120.44;;;18.08;100.00
69257;BME280;56376;53.356;-1.748;2023-08-21T09:23:00;100128.28;;;18.09;100.00
69257;BME280;56376;53.356;-1.748;2023-08-21T09:25:25;100127.53;;;18.07;100.00
69257;BME280;56376;53.356;-1.748;2023-08-21T09:27:52;100118.75;;;18.07;100.00
69257;BME280;56376;53.356;-1.748;2023-08-21T09:30:21;100120.50;;;18.06;100.00
69257;BME280;56376;53.356;-1.748;2023-08-21T09:32:58;100128.19;;;18.11;100.00
69257;BME280;56376;53.356;-1.748;2023-08-21T09:35:32;100126.97;;;18.16;100.00
69257;BME280;56376;53.356;-1.748;2023-08-21T09:37:58;100128.44;;;18.22;100.00
69257;BME280;56376;53.356;-1.748;2023-08-21T09:40:24;100122.69;;;18.30;100.00
69257;BME280;56376;53.356;-1.748;2023-08-21T09:42:53;100125.81;;;18.36;100.00
69257;BME280;56376;53.356;-1.748;2023-08-21T09:45:24;100115.16;;;18.38;100.00
69257;BME280;56376;53.356;-1.748;2023-08-21T09:47:51;100105.72;;;18.48;100.00
69257;BME280;56376;53.356;-1.748;2023-08-21T09:50:18;100103.94;;;18.63;100.00
69257;BME280;56376;53.356;-1.748;2023-08-21T09:52:45;100112.59;;;18.81;100.00
69257;BME280;56376;53.356;-1.748;2023-08-21T09:55:13;100103.13;;;18.91;100.00
69257;BME280;56376;53.356;-1.748;2023-08-21T09:57:39;100096.59;;;18.97;100.00
69257;BME280;56376;53.356;-1.748;2023-08-21T10:00:08;100097.09;;;19.03;100.00
69257;BME280;56376;53.356;-1.748;2023-08-21T10:02:50;100096.88;;;19.07;100.00
69257;BME280;56376;53.356;-1.748;2023-08-21T10:05:19;100088.75;;;19.10;100.00
69257;BME280;56376;53.356;-1.748;2023-08-21T10:07:49;100090.25;;;19.14;100.00
69257;BME280;56376;53.356;-1.748;2023-08-21T10:10:15;100093.47;;;19.19;100.00
69257;BME280;56376;53.356;-1.748;2023-08-21T10:12:41;100093.94;;;19.26;100.00
69257;BME280;56376;53.356;-1.748;2023-08-21T10:15:07;100097.22;;;19.29;100.00
69257;BME280;56376;53.356;-1.748;2023-08-21T10:17:35;100091.09;;;19.29;100.00
69257;BME280;56376;53.356;-1.748;2023-08-21T10:20:07;100097.91;;;19.33;100.00
69257;BME280;56376;53.356;-1.748;2023-08-21T10:22:38;100097.50;;;19.39;100.00
69257;BME280;56376;53.356;-1.748;2023-08-21T10:25:14;100102.88;;;19.37;100.00
69257;BME280;56376;53.356;-1.748;2023-08-21T10:27:41;100098.75;;;19.33;100.00
69257;BME280;56376;53.356;-1.748;2023-08-21T10:30:13;100095.53;;;19.28;100.00
69257;BME280;56376;53.356;-1.748;2023-08-21T10:32:44;100087.22;;;19.20;100.00
69257;BME280;56376;53.356;-1.748;2023-08-21T10:35:14;100089.41;;;19.13;100.00
69257;BME280;56376;53.356;-1.748;2023-08-21T10:40:36;100085.84;;;19.00;100.00
69257;BME280;56376;53.356;-1.748;2023-08-21T10:43:02;100086.69;;;19.00;100.00
69257;BME280;56376;53.356;-1.748;2023-08-21T10:45:29;100085.72;;;19.01;100.00
69257;BME280;56376;53.356;-1.748;2023-08-21T10:47:59;100079.69;;;18.99;100.00
69257;BME280;56376;53.356;-1.748;2023-08-21T10:50:25;100074.38;;;18.99;100.00
69257;BME280;56376;53.356;-1.748;2023-08-21T10:52:52;100081.41;;;19.00;100.00
69257;BME280;56376;53.356;-1.748;2023-08-21T10:55:18;100071.72;;;18.99;100.00
69257;BME280;56376;53.356;-1.748;2023-08-21T10:57:49;100069.00;;;19.01;100.00
69257;BME280;56376;53.356;-1.748;2023-08-21T11:00:18;100067.75;;;19.07;100.00
69257;BME280;56376;53.356;-1.748;2023-08-21T11:02:47;100052.44;;;19.12;100.00
69257;BME280;56376;53.356;-1.748;2023-08-21T11:05:14;100056.59;;;19.16;100.00
69257;BME280;56376;53.356;-1.748;2023-08-21T11:07:41;100065.31;;;19.18;100.00
69257;BME280;56376;53.356;-1.748;2023-08-21T11:10:17;100066.03;;;19.20;100.00
69257;BME280;56376;53.356;-1.748;2023-08-21T11:12:54;100044.97;;;19.18;100.00
69257;BME280;56376;53.356;-1.748;2023-08-21T11:15:21;100053.84;;;19.17;100.00
69257;BME280;56376;53.356;-1.748;2023-08-21T11:18:01;100041.47;;;19.18;100.00
69257;BME280;56376;53.356;-1.748;2023-08-21T11:20:32;100039.53;;;19.20;100.00
69257;BME280;56376;53.356;-1.748;2023-08-21T11:23:03;100050.59;;;19.27;100.00
69257;BME280;56376;53.356;-1.748;2023-08-21T11:25:31;100041.81;;;19.26;100.00
69257;BME280;56376;53.356;-1.748;2023-08-21T11:27:57;100043.50;;;19.27;100.00
69257;BME280;56376;53.356;-1.748;2023-08-21T11:30:23;100038.22;;;19.27;100.00
69257;BME280;56376;53.356;-1.748;2023-08-21T11:32:49;100035.34;;;19.30;100.00
69257;BME280;56376;53.356;-1.748;2023-08-21T11:35:29;100036.13;;;19.32;100.00
69257;BME280;56376;53.356;-1.748;2023-08-21T11:37:54;100041.31;;;19.34;100.00
69257;BME280;56376;53.356;-1.748;2023-08-21T11:40:19;100039.31;;;19.37;100.00
69257;BME280;56376;53.356;-1.748;2023-08-21T11:42:45;100042.50;;;19.42;100.00
69257;BME280;56376;53.356;-1.748;2023-08-21T11:45:10;100036.63;;;19.52;100.00
69257;BME280;56376;53.356;-1.748;2023-08-21T11:47:36;100041.97;;;19.64;100.00
69257;BME280;56376;53.356;-1.748;2023-08-21T11:50:06;100029.75;;;19.76;100.00
69257;BME280;56376;53.356;-1.748;2023-08-21T11:52:32;100026.06;;;19.92;100.00
69257;BME280;56376;53.356;-1.748;2023-08-21T11:54:58;100039.34;;;20.04;100.00
69257;BME280;56376;53.356;-1.748;2023-08-21T11:57:24;100037.69;;;20.16;100.00
69257;BME280;56376;53.356;-1.748;2023-08-21T11:59:54;100032.91;;;20.21;100.00
69257;BME280;56376;53.356;-1.748;2023-08-21T12:02:24;100034.81;;;20.32;100.00
69257;BME280;56376;53.356;-1.748;2023-08-21T12:04:54;100023.78;;;20.38;100.00
69257;BME280;56376;53.356;-1.748;2023-08-21T12:07:20;100028.66;;;20.44;100.00
69257;BME280;56376;53.356;-1.748;2023-08-21T12:09:49;100038.22;;;20.47;100.00
69257;BME280;56376;53.356;-1.748;2023-08-21T12:12:14;100033.97;;;20.44;100.00
69257;BME280;56376;53.356;-1.748;2023-08-21T12:14:40;100028.88;;;20.41;100.00
69257;BME280;56376;53.356;-1.748;2023-08-21T12:17:05;100026.09;;;20.43;100.00
69257;BME280;56376;53.356;-1.748;2023-08-21T12:19:31;100025.88;;;20.46;100.00
69257;BME280;56376;53.356;-1.748;2023-08-21T12:21:56;100027.59;;;20.47;100.00
69257;BME280;56376;53.356;-1.748;2023-08-21T12:24:23;100016.88;;;20.48;100.00
69257;BME280;56376;53.356;-1.748;2023-08-21T12:26:49;100013.50;;;20.46;100.00
69257;BME280;56376;53.356;-1.748;2023-08-21T12:29:14;100016.34;;;20.43;100.00
69257;BME280;56376;53.356;-1.748;2023-08-21T12:31:39;100023.97;;;20.48;100.00
69257;BME280;56376;53.356;-1.748;2023-08-21T12:34:05;100020.16;;;20.52;100.00